Latest Coastal Weather Observations for Aireys Inlet

IDV60701

Issued at 12:51 pm EDT Friday 27 March 2015 (issued every 10 minutes, with the page automatically refreshed every 10 minutes)

About coastal observations | Map of coastal stations | Coastal observations for VIC | Marine services | Other Formats
Station Details ID: 090180 Name: AIREYS INLET Lat: -38.46 Lon: 144.09 Height: 95.0 m
Data from the previous 72 hours. | See also: Recent months at Aireys Inlet
Date/Time
EDT
Temp

°C
Wind Pressure Rain
since 9am
mm
Weather Cloud Vis
km
Sea
Height
m
Swell
Dir
 
Speed
knots
Gust
knots
hPa Trend Height
m
Period
s
Dir
27/12:30pm 14.7 SW 13 19 - - 0.0 - - - - - - -
27/12:00pm 14.8 WSW 14 21 - - 0.0 - - - - - - -
27/11:31am 14.4 WSW 15 25 - - 0.0 - - - - - - -
27/11:30am 14.4 WSW 16 25 - - 0.0 - - - - - - -
27/11:06am 14.3 WSW 15 26 - - 0.0 - - - - - - -
27/11:00am 14.4 WSW 13 21 - - 0.0 - - - - - - -
27/10:30am 13.9 WSW 11 17 - - 0.0 - - - - - - -
27/10:00am 13.6 WSW 11 18 - - 0.0 - - - - - - -
27/09:30am 13.3 W 7 13 - - 0.0 - - - - - - -
27/09:00am 12.8 W 10 15 - - 4.8 - - - - - - -
27/08:30am 12.5 WSW 15 26 - - 4.8 - - - - - - -
27/08:00am 12.1 WSW 12 19 - - 4.8 - - - - - - -
27/07:30am 11.7 W 10 14 - - 4.8 - - - - - - -
27/07:00am 11.8 WSW 10 13 - - 4.8 - - - - - - -
27/06:30am 11.6 W 10 15 - - 4.8 - - - - - - -
27/06:00am 11.3 W 10 13 - - 4.8 - - - - - - -
27/05:30am 11.8 W 10 17 - - 4.8 - - - - - - -
27/05:00am 11.5 WNW 8 12 - - 4.8 - - - - - - -
27/04:30am 11.8 W 11 17 - - 4.8 - - - - - - -
27/04:00am 11.7 W 10 15 - - 4.8 - - - - - - -
27/03:30am 11.7 WNW 9 14 - - 4.8 - - - - - - -
27/03:00am 12.0 W 9 12 - - 4.8 - - - - - - -
27/02:37am 12.3 WSW 16 27 - - 4.8 - - - - - - -
27/02:30am 12.6 WSW 17 27 - - 4.8 - - - - - - -
27/02:28am 12.5 WSW 16 27 - - 4.8 - - - - - - -
27/02:00am 12.5 WSW 12 18 - - 4.8 - - - - - - -
27/01:30am 12.4 WSW 12 17 - - 4.8 - - - - - - -
27/01:00am 12.1 WSW 11 15 - - 4.8 - - - - - - -
27/12:30am 11.8 WSW 11 18 - - 4.8 - - - - - - -
27/12:00am 12.3 W 13 19 - - 4.4 - - - - - - -
 
Date/Time
EDT
Temp

°C
Wind Pressure Rain
since 9am
mm
Weather Cloud Vis
km
Sea
Height
m
Swell
Dir
 
Speed
knots
Gust
knots
hPa Trend Height
m
Period
s
Dir
26/11:30pm 12.0 W 11 16 - - 4.4 - - - - - - -
26/11:00pm 12.1 W 13 19 - - 4.4 - - - - - - -
26/10:30pm 12.2 W 13 20 - - 4.4 - - - - - - -
26/10:00pm 12.0 W 13 21 - - 4.4 - - - - - - -
26/09:30pm 12.0 WNW 13 19 - - 4.4 - - - - - - -
26/09:00pm 12.0 W 14 21 - - 4.4 Recent precip. - - - - - -
26/08:30pm 11.9 WNW 10 15 - - 4.4 - - - - - - -
26/08:00pm 11.8 W 12 16 - - 4.2 - - - - - - -
26/07:30pm 11.8 W 12 19 - - 4.2 - - - - - - -
26/07:00pm 12.5 W 15 25 - - 4.2 - - - - - - -
26/06:55pm 12.4 W 15 25 - - 4.2 - - - - - - -
26/06:30pm 12.3 W 12 18 - - 4.2 - - - - - - -
26/06:00pm 13.2 W 5 12 - - 4.2 Recent precip. - - - - - -
26/05:41pm 12.8 W 15 25 - - 4.2 - - - - - - -
26/05:30pm 12.9 W 12 20 - - 4.2 - - - - - - -
26/05:00pm 11.3 NW 18 31 - - 4.0 - - - - - - -
26/04:30pm 10.6 NW 21 32 - - 3.2 - - - - - - -
26/04:06pm 10.4 NNW 19 31 - - 2.4 - - - - - - -
26/04:00pm 10.3 NNW 19 27 - - 2.2 - - - - - - -
26/03:52pm 10.2 NW 19 30 - - 1.8 - - - - - - -
26/03:42pm 10.3 NW 24 37 - - 1.4 - - - - - - -
26/03:30pm 10.6 NW 31 48 - - 0.2 - - - - - - -
26/03:10pm 13.3 NW 28 44 - - 0.0 - - - - - - -
26/03:09pm 13.3 NW 28 44 - - 0.0 - - - - - - -
26/03:00pm 14.9 NW 22 44 - - 0.0 - - - - - - -
26/02:30pm 14.5 NW 22 37 - - 0.0 - - - - - - -
26/02:00pm 14.0 NW 23 42 - - 0.0 - - - - - - -
26/01:49pm 15.3 WNW 22 45 - - 0.0 - - - - - - -
26/01:30pm 15.4 WNW 19 34 - - 0.0 - - - - - - -
26/01:00pm 14.5 WNW 18 31 - - 0.0 - - - - - - -
26/12:30pm 14.7 NW 16 27 - - 0.0 - - - - - - -
26/12:03pm 13.5 NW 15 26 - - 0.0 - - - - - - -
26/12:00pm 14.2 NW 13 23 - - 0.0 - - - - - - -
26/11:30am 13.0 NW 20 31 - - 0.0 - - - - - - -
26/11:06am 13.0 NW 15 26 - - 0.0 - - - - - - -
26/11:00am 12.1 WNW 16 23 - - 0.0 - - - - - - -
26/10:30am 11.9 NW 10 18 - - 0.0 - - - - - - -
26/10:01am 10.3 NW 20 30 - - 0.0 - - - - - - -
26/10:00am 10.4 NW 19 28 - - 0.0 - - - - - - -
26/09:35am 10.1 NW 16 28 - - 0.0 - - - - - - -
26/09:30am 10.1 WNW 15 21 - - 0.0 - - - - - - -
26/09:00am 9.3 NW 13 20 - - 0.6 - - - - - - -
26/08:30am 9.0 NW 12 22 - - 0.6 - - - - - - -
26/08:00am 8.5 WNW 9 16 - - 0.6 - - - - - - -
26/07:30am 8.5 WNW 12 18 - - 0.6 - - - - - - -
26/07:00am 8.4 WNW 16 26 - - 0.6 - - - - - - -
26/06:34am 8.6 WNW 19 29 - - 0.6 - - - - - - -
26/06:30am 8.5 WNW 19 28 - - 0.6 - - - - - - -
26/06:12am 8.5 WNW 15 26 - - 0.6 - - - - - - -
26/06:00am 8.4 WNW 12 17 - - 0.6 - - - - - - -
26/05:30am 8.8 WNW 5 11 - - 0.6 - - - - - - -
26/05:00am 8.9 NW 10 14 - - 0.6 - - - - - - -
26/04:30am 9.1 WNW 5 8 - - 0.6 - - - - - - -
26/04:00am 9.0 WNW 6 15 - - 0.6 - - - - - - -
26/03:30am 9.0 NW 13 24 - - 0.6 - - - - - - -
26/03:00am 8.6 NW 13 19 - - 0.6 - - - - - - -
26/02:30am 8.7 NNW 11 18 - - 0.6 - - - - - - -
26/02:00am 8.9 NW 10 15 - - 0.6 - - - - - - -
26/01:30am 9.0 NNW 10 16 - - 0.2 - - - - - - -
26/01:00am 9.6 NW 12 18 - - 0.0 - - - - - - -
26/12:30am 10.8 WNW 12 20 - - 0.0 - - - - - - -
26/12:00am 11.9 W 16 24 - - 0.0 - - - - - - -
 
Date/Time
EDT
Temp

°C
Wind Pressure Rain
since 9am
mm
Weather Cloud Vis
km
Sea
Height
m
Swell
Dir
 
Speed
knots
Gust
knots
hPa Trend Height
m
Period
s
Dir
25/11:30pm 14.3 W 14 20 - - 0.0 - - - - - - -
25/11:00pm 15.5 N 11 19 - - 0.0 - - - - - - -
25/10:30pm 15.6 N 12 16 - - 0.0 - - - - - - -
25/10:00pm 15.5 N 11 15 - - 0.0 - - - - - - -
25/09:30pm 15.2 N 11 16 - - 0.0 - - - - - - -
25/09:00pm 13.5 N 4 7 - - 0.0 - - - - - - -
25/08:30pm 13.7 NE 5 6 - - 0.0 - - - - - - -
25/08:00pm 13.8 NNE 4 7 - - 0.0 - - - - - - -
25/07:30pm 14.4 ENE 5 7 - - 0.0 - - - - - - -
25/07:00pm 14.9 ENE 5 7 - - 0.0 - - - - - - -
25/06:30pm 16.0 ESE 3 5 - - 0.0 - - - - - - -
25/06:00pm 16.6 ESE 3 5 - - 0.0 - - - - - - -
25/05:30pm 18.4 NE 5 13 - - 0.0 - - - - - - -
25/05:00pm 19.0 NW 9 16 - - 0.0 - - - - - - -
25/04:30pm 18.6 NW 8 15 - - 0.0 - - - - - - -
25/04:00pm 19.2 NW 5 9 - - 0.0 - - - - - - -
25/03:30pm 17.5 NNE 3 8 - - 0.0 - - - - - - -
25/03:00pm 16.9 WNW 5 9 - - 0.0 - - - - - - -
25/02:30pm 17.0 W 3 7 - - 0.0 - - - - - - -
25/02:00pm 16.6 WNW 3 7 - - 0.0 - - - - - - -
25/01:30pm 17.1 NW 6 11 - - 0.0 - - - - - - -
25/01:00pm 16.3 NNW 6 11 - - 0.0 - - - - - - -
25/12:30pm 15.9 N 6 11 - - 0.0 - - - - - - -
25/12:00pm 15.0 WNW 5 9 - - 0.0 - - - - - - -
25/11:30am 14.8 NW 5 8 - - 0.0 - - - - - - -
25/11:00am 15.4 WNW 5 8 - - 0.0 - - - - - - -
25/10:30am 14.2 NW 7 10 - - 0.0 - - - - - - -
25/10:00am 14.3 WNW 4 8 - - 0.0 - - - - - - -
25/09:30am 12.9 NW 5 7 - - 0.0 - - - - - - -
25/09:00am 10.9 WNW 6 8 - - 0.0 - - - - - - -
25/08:30am 9.4 NW 5 7 - - 0.0 - - - - - - -
25/08:00am 8.5 NW 8 10 - - 0.0 - - - - - - -
25/07:30am 8.8 NW 8 9 - - 0.0 - - - - - - -
25/07:00am 8.6 NNW 7 9 - - 0.0 - - - - - - -
25/06:30am 9.0 NW 6 8 - - 0.0 - - - - - - -
25/06:00am 9.4 NW 7 8 - - 0.0 - - - - - - -
25/05:30am 10.0 NW 7 8 - - 0.0 - - - - - - -
25/05:00am 10.9 W 6 10 - - 0.0 - - - - - - -
25/04:30am 11.3 W 9 13 - - 0.0 - - - - - - -
25/04:00am 11.2 WNW 7 10 - - 0.0 - - - - - - -
25/03:30am 11.2 W 6 8 - - 0.0 - - - - - - -
25/03:00am 11.0 WNW 6 8 - - 0.0 - - - - - - -
25/02:30am 10.9 W 7 9 - - 0.0 - - - - - - -
25/02:00am 10.6 WNW 6 9 - - 0.0 - - - - - - -
25/01:30am 10.8 W 7 9 - - 0.0 - - - - - - -
25/01:00am 10.7 W 7 9 - - 0.0 - - - - - - -
25/12:30am 11.0 WSW 7 9 - - 0.0 - - - - - - -
25/12:00am 11.4 W 7 9 - - 0.0 - - - - - - -
 
Date/Time
EDT
Temp

°C
Wind Pressure Rain
since 9am
mm
Weather Cloud Vis
km
Sea
Height
m
Swell
Dir
 
Speed
knots
Gust
knots
hPa Trend Height
m
Period
s
Dir
24/11:30pm 12.2 W 4 6 - - 0.0 - - - - - - -
24/11:00pm 12.4 W 6 8 - - 0.0 - - - - - - -
24/10:30pm 12.8 WSW 6 9 - - 0.0 - - - - - - -
24/10:00pm 12.9 SW 5 9 - - 0.0 - - - - - - -
24/09:30pm 13.1 SW 10 16 - - 0.0 - - - - - - -
24/09:00pm 13.0 SSW 11 15 - - 0.0 - - - - - - -
24/08:30pm 12.9 SW 12 18 - - 0.0 - - - - - - -
24/08:00pm 13.0 SW 13 20 - - 0.0 - - - - - - -
24/07:30pm 13.3 SW 13 20 - - 0.0 - - - - - - -
24/07:00pm 13.4 SSW 14 23 - - 0.0 - - - - - - -
24/06:30pm 13.6 SW 15 23 - - 0.0 - - - - - - -
24/06:00pm 13.7 SSW 15 25 - - 0.0 - - - - - - -
24/05:30pm 14.1 SW 16 23 - - 0.0 - - - - - - -
24/05:00pm 14.1 SSW 15 22 - - 0.0 - - - - - - -
24/04:30pm 14.5 SSW 14 23 - - 0.0 - - - - - - -
24/04:00pm 14.4 SSW 15 22 - - 0.0 - - - - - - -
24/03:30pm 14.7 SW 16 25 - - 0.0 - - - - - - -
24/03:00pm 15.6 SW 16 23 - - 0.0 - - - - - - -
24/02:30pm 16.0 SW 14 21 - - 0.0 - - - - - - -
24/02:00pm 15.3 SSW 14 21 - - 0.0 - - - - - - -
24/01:30pm 16.4 SSW 12 20 - - 0.0 - - - - - - -
24/01:00pm 16.6 SSW 13 19 - - 0.0 - - - - - - -

Other Formats:

Comma delimited format used in spreadsheet applications
http://www.bom.gov.au/fwo/IDV60701/IDV60701.94846.axf

JavaScript Object Notation format (JSON) in row-major order
http://www.bom.gov.au/fwo/IDV60701/IDV60701.94846.json